Time,TemperatureF,DewpointF,PressureIn,WindDirection,WindDirectionDegrees,WindSpeedMPH,WindSpeedGustMPH,Humidity,HourlyPrecipIn,Conditions,Clouds,dailyrainin,SolarRadiationWatts/m^2,SoftwareType,DateUTC
2013-09-29 00:02:00,79.9,53.4,-100.00,SW,230,3.0,-999.0,40,-99.99,,,-99.99,0.0,meteohub,2013-09-29 04:02:00,
2013-09-29 00:07:00,79.9,53.4,-100.00,South,178,0.0,-999.0,40,-99.99,,,-99.99,0.0,meteohub,2013-09-29 04:07:00,
2013-09-29 00:12:00,79.9,53.4,-100.00,SSW,205,1.0,-999.0,40,-99.99,,,-99.99,0.0,meteohub,2013-09-29 04:12:00,
2013-09-29 00:17:00,79.9,52.7,-100.00,SSW,213,1.0,-999.0,39,-99.99,,,-99.99,0.0,meteohub,2013-09-29 04:17:00,
2013-09-29 00:22:00,79.7,54.0,-100.00,SW,215,3.0,-999.0,41,-99.99,,,-99.99,0.0,meteohub,2013-09-29 04:22:00,
2013-09-29 00:27:00,79.5,56.3,-100.00,South,172,0.0,-999.0,45,-99.99,,,-99.99,0.0,meteohub,2013-09-29 04:27:00,
2013-09-29 00:32:00,79.5,55.8,-100.00,East,89,3.0,-999.0,44,-99.99,,,-99.99,0.0,meteohub,2013-09-29 04:32:00,
2013-09-29 00:37:00,79.7,53.2,-100.00,South,169,3.0,-999.0,40,-99.99,,,-99.99,0.0,meteohub,2013-09-29 04:37:00,
2013-09-29 00:42:00,79.9,51.3,-100.00,NNE,28,0.0,-999.0,37,-99.99,,,-99.99,0.0,meteohub,2013-09-29 04:42:00,
2013-09-29 00:47:00,80.1,48.4,-100.00,WSW,246,0.0,-999.0,33,-99.99,,,-99.99,0.0,meteohub,2013-09-29 04:47:00,
2013-09-29 00:52:00,80.1,48.4,-100.00,SE,140,0.0,-999.0,33,-99.99,,,-99.99,0.0,meteohub,2013-09-29 04:52:00,
2013-09-29 00:57:00,79.9,50.5,-100.00,South,179,4.0,-999.0,36,-99.99,,,-99.99,0.0,meteohub,2013-09-29 04:57:00,
2013-09-29 01:02:00,79.9,51.3,-100.00,SSE,167,0.0,-999.0,37,-99.99,,,-99.99,0.0,meteohub,2013-09-29 05:02:00,
2013-09-29 01:07:00,79.7,51.1,-100.00,SE,136,1.0,-999.0,37,-99.99,,,-99.99,0.0,meteohub,2013-09-29 05:07:00,
2013-09-29 01:12:00,79.5,50.9,-100.00,South,180,0.0,-999.0,37,-99.99,,,-99.99,0.0,meteohub,2013-09-29 05:12:00,
2013-09-29 01:17:00,79.5,52.3,-100.00,South,191,4.0,-999.0,39,-99.99,,,-99.99,0.0,meteohub,2013-09-29 05:17:00,
2013-09-29 01:22:00,79.5,50.9,-100.00,NNE,22,0.0,-999.0,37,-99.99,,,-99.99,0.0,meteohub,2013-09-29 05:22:00,
2013-09-29 01:27:00,79.5,51.6,-100.00,SSE,150,2.0,-999.0,38,-99.99,,,-99.99,0.0,meteohub,2013-09-29 05:27:00,
2013-09-29 01:32:00,79.3,50.7,-100.00,SE,130,0.0,-999.0,37,-99.99,,,-99.99,0.0,meteohub,2013-09-29 05:32:00,
2013-09-29 01:37:00,79.5,50.2,-100.00,WSW,248,2.0,-999.0,36,-99.99,,,-99.99,0.0,meteohub,2013-09-29 05:37:00,
2013-09-29 01:42:00,79.5,49.5,-100.00,WNW,301,0.0,-999.0,35,-99.99,,,-99.99,0.0,meteohub,2013-09-29 05:42:00,
2013-09-29 01:47:00,79.3,50.0,-100.00,SSW,199,5.0,-999.0,36,-99.99,,,-99.99,0.0,meteohub,2013-09-29 05:47:00,
2013-09-29 01:52:00,79.2,50.7,-100.00,West,269,0.0,-999.0,37,-99.99,,,-99.99,0.0,meteohub,2013-09-29 05:52:00,
2013-09-29 01:57:00,79.2,49.1,-100.00,SSE,156,1.0,-999.0,35,-99.99,,,-99.99,0.0,meteohub,2013-09-29 05:57:00,
2013-09-29 02:02:00,79.3,48.6,-100.00,SE,132,0.0,-999.0,34,-99.99,,,-99.99,0.0,meteohub,2013-09-29 06:02:00,
2013-09-29 02:07:00,79.3,48.6,-100.00,SSE,159,3.0,-999.0,34,-99.99,,,-99.99,0.0,meteohub,2013-09-29 06:07:00,
2013-09-29 02:12:00,79.3,48.6,-100.00,SSE,165,0.0,-999.0,34,-99.99,,,-99.99,0.0,meteohub,2013-09-29 06:12:00,
2013-09-29 02:17:00,79.2,49.1,-100.00,South,176,3.0,-999.0,35,-99.99,,,-99.99,0.0,meteohub,2013-09-29 06:17:00,
2013-09-29 02:22:00,78.8,51.1,-100.00,SSW,204,0.0,-999.0,38,-99.99,,,-99.99,0.0,meteohub,2013-09-29 06:22:00,
2013-09-29 02:27:00,78.6,52.9,-100.00,SE,130,3.0,-999.0,41,-99.99,,,-99.99,0.0,meteohub,2013-09-29 06:27:00,
2013-09-29 02:32:00,78.6,54.3,-100.00,SW,233,0.0,-999.0,43,-99.99,,,-99.99,0.0,meteohub,2013-09-29 06:32:00,
2013-09-29 02:37:00,78.6,52.9,-100.00,SSE,164,0.0,-999.0,41,-99.99,,,-99.99,0.0,meteohub,2013-09-29 06:37:00,
2013-09-29 02:42:00,78.6,51.6,-100.00,SSE,160,2.0,-999.0,39,-99.99,,,-99.99,0.0,meteohub,2013-09-29 06:42:00,
2013-09-29 02:52:00,78.6,51.6,-100.00,SE,138,0.0,-999.0,39,-99.99,,,-99.99,0.0,meteohub,2013-09-29 06:52:00,
2013-09-29 02:57:00,78.6,50.9,-100.00,South,176,0.0,-999.0,38,-99.99,,,-99.99,0.0,meteohub,2013-09-29 06:57:00,
2013-09-29 03:02:00,78.6,49.5,-100.00,East,92,0.0,-999.0,36,-99.99,,,-99.99,0.0,meteohub,2013-09-29 07:02:00,
2013-09-29 03:07:00,78.8,49.6,-100.00,SE,137,0.0,-999.0,36,-99.99,,,-99.99,0.0,meteohub,2013-09-29 07:07:00,
2013-09-29 03:12:00,78.6,49.5,-100.00,SE,136,0.0,-999.0,36,-99.99,,,-99.99,0.0,meteohub,2013-09-29 07:12:00,
2013-09-29 03:17:00,78.6,47.8,-100.00,SE,136,0.0,-999.0,34,-99.99,,,-99.99,0.0,meteohub,2013-09-29 07:17:00,
2013-09-29 03:22:00,78.8,47.3,-100.00,SE,137,0.0,-999.0,33,-99.99,,,-99.99,0.0,meteohub,2013-09-29 07:22:00,
2013-09-29 03:27:00,78.8,48.0,-100.00,SE,137,0.0,-999.0,34,-99.99,,,-99.99,0.0,meteohub,2013-09-29 07:27:00,
2013-09-29 03:32:00,78.6,48.7,-100.00,SSE,166,0.0,-999.0,35,-99.99,,,-99.99,0.0,meteohub,2013-09-29 07:32:00,
2013-09-29 03:37:00,78.6,49.5,-100.00,SSE,161,0.0,-999.0,36,-99.99,,,-99.99,0.0,meteohub,2013-09-29 07:37:00,
2013-09-29 03:42:00,78.6,49.5,-100.00,SSE,161,0.0,-999.0,36,-99.99,,,-99.99,0.0,meteohub,2013-09-29 07:42:00,
2013-09-29 03:47:00,78.4,51.4,-100.00,SSE,160,0.0,-999.0,39,-99.99,,,-99.99,0.0,meteohub,2013-09-29 07:47:00,
2013-09-29 03:52:00,78.3,52.0,-100.00,SSE,161,0.0,-999.0,40,-99.99,,,-99.99,0.0,meteohub,2013-09-29 07:52:00,
2013-09-29 03:57:00,78.3,51.3,-100.00,SSE,160,0.0,-999.0,39,-99.99,,,-99.99,0.0,meteohub,2013-09-29 07:57:00,
2013-09-29 04:02:00,78.3,49.8,-100.00,SSE,161,0.0,-999.0,37,-99.99,,,-99.99,0.0,meteohub,2013-09-29 08:02:00,
2013-09-29 04:07:00,78.4,47.7,-100.00,South,184,0.0,-999.0,34,-99.99,,,-99.99,0.0,meteohub,2013-09-29 08:07:00,
2013-09-29 04:12:00,78.4,47.7,-100.00,SSW,194,0.0,-999.0,34,-99.99,,,-99.99,0.0,meteohub,2013-09-29 08:12:00,
2013-09-29 04:17:00,78.4,47.7,-100.00,SSW,198,0.0,-999.0,34,-99.99,,,-99.99,0.0,meteohub,2013-09-29 08:17:00,
2013-09-29 04:22:00,78.4,47.7,-100.00,SSW,198,0.0,-999.0,34,-99.99,,,-99.99,0.0,meteohub,2013-09-29 08:22:00,
2013-09-29 04:27:00,78.4,46.9,-100.00,South,177,0.0,-999.0,33,-99.99,,,-99.99,0.0,meteohub,2013-09-29 08:27:00,
2013-09-29 04:32:00,78.4,45.3,-100.00,South,177,0.0,-999.0,31,-99.99,,,-99.99,0.0,meteohub,2013-09-29 08:32:00,
2013-09-29 04:37:00,78.4,45.3,-100.00,South,177,0.0,-999.0,31,-99.99,,,-99.99,0.0,meteohub,2013-09-29 08:37:00,
2013-09-29 04:42:00,78.4,44.4,-100.00,South,177,0.0,-999.0,30,-99.99,,,-99.99,0.0,meteohub,2013-09-29 08:42:00,
2013-09-29 04:47:00,78.4,44.4,-100.00,South,172,0.0,-999.0,30,-99.99,,,-99.99,0.0,meteohub,2013-09-29 08:47:00,
2013-09-29 04:52:00,78.4,46.2,-100.00,South,173,0.0,-999.0,32,-99.99,,,-99.99,0.0,meteohub,2013-09-29 08:52:00,
2013-09-29 04:57:00,78.4,46.2,-100.00,South,173,0.0,-999.0,32,-99.99,,,-99.99,0.0,meteohub,2013-09-29 08:57:00,
2013-09-29 05:02:00,78.4,45.3,-100.00,South,172,0.0,-999.0,31,-99.99,,,-99.99,0.0,meteohub,2013-09-29 09:02:00,
2013-09-29 05:07:00,78.4,45.3,-100.00,South,172,0.0,-999.0,31,-99.99,,,-99.99,0.0,meteohub,2013-09-29 09:07:00,
2013-09-29 05:12:00,78.4,45.3,-100.00,South,173,0.0,-999.0,31,-99.99,,,-99.99,0.0,meteohub,2013-09-29 09:12:00,
2013-09-29 05:17:00,78.6,44.6,-100.00,South,175,1.0,-999.0,30,-99.99,,,-99.99,0.0,meteohub,2013-09-29 09:17:00,
2013-09-29 05:22:00,78.6,44.6,-100.00,South,178,0.0,-999.0,30,-99.99,,,-99.99,0.0,meteohub,2013-09-29 09:22:00,
2013-09-29 05:27:00,78.6,45.5,-100.00,South,178,0.0,-999.0,31,-99.99,,,-99.99,0.0,meteohub,2013-09-29 09:27:00,
2013-09-29 05:32:00,78.6,45.5,-100.00,South,178,0.0,-999.0,31,-99.99,,,-99.99,0.0,meteohub,2013-09-29 09:32:00,
2013-09-29 05:37:00,78.6,45.5,-100.00,South,178,0.0,-999.0,31,-99.99,,,-99.99,0.0,meteohub,2013-09-29 09:37:00,
2013-09-29 05:42:00,78.6,45.5,-100.00,South,178,0.0,-999.0,31,-99.99,,,-99.99,0.0,meteohub,2013-09-29 09:42:00,
2013-09-29 05:47:00,78.6,46.2,-100.00,South,178,0.0,-999.0,32,-99.99,,,-99.99,0.0,meteohub,2013-09-29 09:47:00,
2013-09-29 05:52:00,78.6,45.5,-100.00,South,178,0.0,-999.0,31,-99.99,,,-99.99,0.0,meteohub,2013-09-29 09:52:00,
2013-09-29 05:57:00,78.6,45.5,-100.00,South,178,0.0,-999.0,31,-99.99,,,-99.99,0.0,meteohub,2013-09-29 09:57:00,
2013-09-29 06:02:00,78.6,44.6,-100.00,South,178,0.0,-999.0,30,-99.99,,,-99.99,0.0,meteohub,2013-09-29 10:02:00,
2013-09-29 06:07:00,78.6,43.7,-100.00,South,178,0.0,-999.0,29,-99.99,,,-99.99,0.0,meteohub,2013-09-29 10:07:00,
2013-09-29 06:12:00,78.6,42.8,-100.00,South,178,0.0,-999.0,28,-99.99,,,-99.99,0.0,meteohub,2013-09-29 10:12:00,
2013-09-29 06:17:00,78.6,42.8,-100.00,South,169,0.0,-999.0,28,-99.99,,,-99.99,0.0,meteohub,2013-09-29 10:17:00,
2013-09-29 06:22:00,78.6,43.7,-100.00,South,169,0.0,-999.0,29,-99.99,,,-99.99,0.0,meteohub,2013-09-29 10:22:00,
2013-09-29 06:27:00,78.6,43.7,-100.00,South,170,0.0,-999.0,29,-99.99,,,-99.99,0.0,meteohub,2013-09-29 10:27:00,
2013-09-29 06:32:00,78.6,44.6,-100.00,South,169,0.0,-999.0,30,-99.99,,,-99.99,0.0,meteohub,2013-09-29 10:32:00,
2013-09-29 06:37:00,78.4,45.3,-100.00,South,169,0.0,-999.0,31,-99.99,,,-99.99,0.0,meteohub,2013-09-29 10:37:00,
2013-09-29 06:42:00,78.4,45.3,-100.00,South,170,0.0,-999.0,31,-99.99,,,-99.99,0.0,meteohub,2013-09-29 10:42:00,
2013-09-29 06:47:00,78.3,45.1,-100.00,South,170,0.0,-999.0,31,-99.99,,,-99.99,0.0,meteohub,2013-09-29 10:47:00,
2013-09-29 06:52:00,78.3,44.2,-100.00,South,170,0.0,-999.0,30,-99.99,,,-99.99,0.0,meteohub,2013-09-29 10:52:00,
2013-09-29 06:57:00,78.3,44.2,-100.00,South,169,0.0,-999.0,30,-99.99,,,-99.99,0.0,meteohub,2013-09-29 10:57:00,
2013-09-29 07:02:00,78.4,44.4,-100.00,South,169,0.0,-999.0,30,-99.99,,,-99.99,0.0,meteohub,2013-09-29 11:02:00,
2013-09-29 07:07:00,78.3,44.2,-100.00,South,169,0.0,-999.0,30,-99.99,,,-99.99,0.0,meteohub,2013-09-29 11:07:00,
2013-09-29 07:12:00,78.3,44.2,-100.00,South,169,0.0,-999.0,30,-99.99,,,-99.99,0.0,meteohub,2013-09-29 11:12:00,
2013-09-29 07:17:00,78.1,45.0,-100.00,South,169,0.0,-999.0,31,-99.99,,,-99.99,7.0,meteohub,2013-09-29 11:17:00,
2013-09-29 07:22:00,78.1,45.0,-100.00,South,169,0.0,-999.0,31,-99.99,,,-99.99,11.0,meteohub,2013-09-29 11:22:00,
2013-09-29 07:27:00,77.9,44.1,-100.00,South,169,0.0,-999.0,30,-99.99,,,-99.99,16.0,meteohub,2013-09-29 11:27:00,
2013-09-29 07:32:00,78.1,41.4,-100.00,South,169,0.0,-999.0,27,-99.99,,,-99.99,21.0,meteohub,2013-09-29 11:32:00,
2013-09-29 07:37:00,78.1,38.3,-100.00,South,169,0.0,-999.0,24,-99.99,,,-99.99,23.0,meteohub,2013-09-29 11:37:00,
2013-09-29 07:42:00,77.9,34.9,-100.00,South,170,0.0,-999.0,21,-99.99,,,-99.99,39.0,meteohub,2013-09-29 11:42:00,
2013-09-29 07:47:00,77.7,30.9,-100.00,South,169,0.0,-999.0,18,-99.99,,,-99.99,51.0,meteohub,2013-09-29 11:47:00,
2013-09-29 07:52:00,77.7,26.4,-100.00,South,169,0.0,-999.0,15,-99.99,,,-99.99,95.0,meteohub,2013-09-29 11:52:00,
2013-09-29 07:57:00,77.7,24.8,-100.00,South,170,0.0,-999.0,14,-99.99,,,-99.99,116.0,meteohub,2013-09-29 11:57:00,
2013-09-29 08:02:00,77.7,23.0,-100.00,South,170,0.0,-999.0,13,-99.99,,,-99.99,121.0,meteohub,2013-09-29 12:02:00,
2013-09-29 08:07:00,78.1,23.2,-100.00,South,170,0.0,-999.0,13,-99.99,,,-99.99,162.0,meteohub,2013-09-29 12:07:00,
2013-09-29 08:12:00,78.3,21.6,-100.00,South,169,0.0,-999.0,12,-99.99,,,-99.99,179.0,meteohub,2013-09-29 12:12:00,
2013-09-29 08:17:00,78.6,21.7,-100.00,South,170,0.0,-999.0,12,-99.99,,,-99.99,214.0,meteohub,2013-09-29 12:17:00,
2013-09-29 08:22:00,79.0,22.1,-100.00,South,170,0.0,-999.0,12,-99.99,,,-99.99,239.0,meteohub,2013-09-29 12:22:00,
2013-09-29 08:27:00,79.5,24.4,-100.00,South,169,0.0,-999.0,13,-99.99,,,-99.99,146.0,meteohub,2013-09-29 12:27:00,
2013-09-29 08:32:00,79.9,24.6,-100.00,South,170,0.0,-999.0,13,-99.99,,,-99.99,244.0,meteohub,2013-09-29 12:32:00,
2013-09-29 08:37:00,80.4,26.8,-100.00,South,170,0.0,-999.0,14,-99.99,,,-99.99,360.0,meteohub,2013-09-29 12:37:00,
2013-09-29 08:42:00,81.0,28.9,-100.00,South,170,0.0,-999.0,15,-99.99,,,-99.99,142.0,meteohub,2013-09-29 12:42:00,
2013-09-29 08:47:00,81.3,32.4,-100.00,South,169,0.0,-999.0,17,-99.99,,,-99.99,165.0,meteohub,2013-09-29 12:47:00,
2013-09-29 08:52:00,81.7,35.4,-100.00,South,171,0.0,-999.0,19,-99.99,,,-99.99,381.0,meteohub,2013-09-29 12:52:00,
2013-09-29 08:57:00,82.0,40.6,-100.00,South,171,0.0,-999.0,23,-99.99,,,-99.99,181.0,meteohub,2013-09-29 12:57:00,
2013-09-29 09:02:00,82.6,41.0,-100.00,South,171,0.0,-999.0,23,-99.99,,,-99.99,452.0,meteohub,2013-09-29 13:02:00,
2013-09-29 09:07:00,82.6,48.0,-100.00,South,171,0.0,-999.0,30,-99.99,,,-99.99,167.0,meteohub,2013-09-29 13:07:00,
2013-09-29 09:12:00,82.2,54.1,-100.00,South,187,0.0,-999.0,38,-99.99,,,-99.99,206.0,meteohub,2013-09-29 13:12:00,
2013-09-29 09:17:00,81.9,58.5,-100.00,SSE,150,0.0,-999.0,45,-99.99,,,-99.99,197.0,meteohub,2013-09-29 13:17:00,
2013-09-29 09:22:00,82.0,57.9,-100.00,SSE,149,0.0,-999.0,44,-99.99,,,-99.99,547.0,meteohub,2013-09-29 13:22:00,
2013-09-29 09:27:00,82.2,58.8,-100.00,SSE,149,0.0,-999.0,45,-99.99,,,-99.99,504.0,meteohub,2013-09-29 13:27:00,
2013-09-29 09:32:00,82.2,58.1,-100.00,SSE,149,0.0,-999.0,44,-99.99,,,-99.99,643.0,meteohub,2013-09-29 13:32:00,
2013-09-29 09:37:00,82.8,60.4,-100.00,West,265,1.0,-999.0,47,-99.99,,,-99.99,633.0,meteohub,2013-09-29 13:37:00,
2013-09-29 09:42:00,83.1,61.3,-100.00,SSE,163,0.0,-999.0,48,-99.99,,,-99.99,559.0,meteohub,2013-09-29 13:42:00,
2013-09-29 09:47:00,83.7,63.0,-100.00,SE,125,0.0,-999.0,50,-99.99,,,-99.99,274.0,meteohub,2013-09-29 13:47:00,
2013-09-29 09:52:00,83.8,64.4,-100.00,SE,146,1.0,-999.0,52,-99.99,,,-99.99,689.0,meteohub,2013-09-29 13:52:00,
2013-09-29 09:57:00,83.8,64.4,-100.00,SSE,153,2.0,-999.0,52,-99.99,,,-99.99,387.0,meteohub,2013-09-29 13:57:00,
2013-09-29 10:02:00,84.0,63.9,-100.00,South,187,0.0,-999.0,51,-99.99,,,-99.99,320.0,meteohub,2013-09-29 14:02:00,
2013-09-29 10:07:00,84.4,64.8,-100.00,SSW,198,0.0,-999.0,52,-99.99,,,-99.99,626.0,meteohub,2013-09-29 14:07:00,
2013-09-29 10:12:00,84.7,65.7,-100.00,SSE,153,0.0,-999.0,53,-99.99,,,-99.99,819.0,meteohub,2013-09-29 14:12:00,
2013-09-29 10:17:00,84.9,65.8,-100.00,NW,325,3.0,-999.0,53,-99.99,,,-99.99,846.0,meteohub,2013-09-29 14:17:00,
2013-09-29 10:22:00,85.8,67.3,-100.00,WNW,282,0.0,-999.0,54,-99.99,,,-99.99,640.0,meteohub,2013-09-29 14:22:00,
2013-09-29 10:27:00,85.6,67.1,-100.00,NNE,15,1.0,-999.0,54,-99.99,,,-99.99,237.0,meteohub,2013-09-29 14:27:00,
2013-09-29 10:32:00,85.3,66.2,-100.00,North,5,0.0,-999.0,53,-99.99,,,-99.99,429.0,meteohub,2013-09-29 14:32:00,
2013-09-29 10:37:00,85.3,66.7,-100.00,SSE,161,0.0,-999.0,54,-99.99,,,-99.99,559.0,meteohub,2013-09-29 14:37:00,
2013-09-29 10:42:00,85.8,67.3,-100.00,WNW,300,0.0,-999.0,54,-99.99,,,-99.99,858.0,meteohub,2013-09-29 14:42:00,
2013-09-29 10:47:00,86.5,68.0,-100.00,WNW,300,0.0,-999.0,54,-99.99,,,-99.99,536.0,meteohub,2013-09-29 14:47:00,
2013-09-29 10:52:00,86.7,68.5,-100.00,NW,312,1.0,-999.0,55,-99.99,,,-99.99,882.0,meteohub,2013-09-29 14:52:00,
2013-09-29 10:57:00,86.9,68.7,-100.00,SSE,148,0.0,-999.0,55,-99.99,,,-99.99,833.0,meteohub,2013-09-29 14:57:00,
2013-09-29 11:02:00,86.7,68.5,-100.00,WNW,301,2.0,-999.0,55,-99.99,,,-99.99,819.0,meteohub,2013-09-29 15:02:00,
2013-09-29 11:07:00,87.1,68.9,-100.00,SSE,159,2.0,-999.0,55,-99.99,,,-99.99,851.0,meteohub,2013-09-29 15:07:00,
2013-09-29 11:12:00,86.7,68.5,-100.00,SW,225,1.0,-999.0,55,-99.99,,,-99.99,819.0,meteohub,2013-09-29 15:12:00,
2013-09-29 11:17:00,87.3,69.1,-100.00,WNW,290,1.0,-999.0,55,-99.99,,,-99.99,807.0,meteohub,2013-09-29 15:17:00,
2013-09-29 11:27:00,86.5,68.4,-100.00,South,187,2.0,-999.0,55,-99.99,,,-99.99,860.0,meteohub,2013-09-29 15:27:00,
2013-09-29 11:32:00,87.1,68.9,-100.00,SE,138,4.0,-999.0,55,-99.99,,,-99.99,923.0,meteohub,2013-09-29 15:32:00,
2013-09-29 11:37:00,87.1,68.9,-100.00,SSW,206,3.0,-999.0,55,-99.99,,,-99.99,856.0,meteohub,2013-09-29 15:37:00,
2013-09-29 11:42:00,87.1,68.9,-100.00,SSE,165,2.0,-999.0,55,-99.99,,,-99.99,561.0,meteohub,2013-09-29 15:42:00,
2013-09-29 11:47:00,86.7,68.5,-100.00,SSE,167,4.0,-999.0,55,-99.99,,,-99.99,513.0,meteohub,2013-09-29 15:47:00,
2013-09-29 11:52:00,86.7,68.5,-100.00,SSE,156,0.0,-999.0,55,-99.99,,,-99.99,613.0,meteohub,2013-09-29 15:52:00,
2013-09-29 11:57:00,87.1,68.9,-100.00,ENE,71,0.0,-999.0,55,-99.99,,,-99.99,621.0,meteohub,2013-09-29 15:57:00,
2013-09-29 12:02:00,87.1,68.9,-100.00,ESE,121,2.0,-999.0,55,-99.99,,,-99.99,531.0,meteohub,2013-09-29 16:02:00,
2013-09-29 12:07:00,86.7,68.5,-100.00,SE,146,4.0,-999.0,55,-99.99,,,-99.99,418.0,meteohub,2013-09-29 16:07:00,
2013-09-29 12:12:00,87.1,69.4,-100.00,South,188,0.0,-999.0,56,-99.99,,,-99.99,418.0,meteohub,2013-09-29 16:12:00,
2013-09-29 12:17:00,87.6,69.4,-100.00,SE,142,2.0,-999.0,55,-99.99,,,-99.99,954.0,meteohub,2013-09-29 16:17:00,
2013-09-29 12:22:00,87.4,69.3,-100.00,SSW,209,2.0,-999.0,55,-99.99,,,-99.99,912.0,meteohub,2013-09-29 16:22:00,
2013-09-29 12:27:00,88.2,69.4,-100.00,SSW,193,4.0,-999.0,54,-99.99,,,-99.99,907.0,meteohub,2013-09-29 16:27:00,
2013-09-29 12:32:00,88.3,70.2,-100.00,SSE,167,4.0,-999.0,55,-99.99,,,-99.99,898.0,meteohub,2013-09-29 16:32:00,
2013-09-29 12:37:00,88.3,70.2,-100.00,SSE,162,1.0,-999.0,55,-99.99,,,-99.99,904.0,meteohub,2013-09-29 16:37:00,
2013-09-29 12:42:00,88.5,69.8,-100.00,SSE,150,0.0,-999.0,54,-99.99,,,-99.99,900.0,meteohub,2013-09-29 16:42:00,
2013-09-29 12:47:00,89.1,69.6,-100.00,SSW,196,2.0,-999.0,53,-99.99,,,-99.99,933.0,meteohub,2013-09-29 16:47:00,
2013-09-29 12:52:00,88.9,70.7,-100.00,WSW,240,0.0,-999.0,55,-99.99,,,-99.99,946.0,meteohub,2013-09-29 16:52:00,
2013-09-29 12:57:00,88.9,70.7,-100.00,SE,146,1.0,-999.0,55,-99.99,,,-99.99,958.0,meteohub,2013-09-29 16:57:00,
2013-09-29 13:02:00,88.5,70.3,-100.00,South,178,5.0,-999.0,55,-99.99,,,-99.99,956.0,meteohub,2013-09-29 17:02:00,
2013-09-29 13:07:00,88.2,70.0,-100.00,South,169,3.0,-999.0,55,-99.99,,,-99.99,923.0,meteohub,2013-09-29 17:07:00,
2013-09-29 13:12:00,88.0,70.3,-100.00,SSE,155,0.0,-999.0,56,-99.99,,,-99.99,230.0,meteohub,2013-09-29 17:12:00,
2013-09-29 13:17:00,87.8,70.2,-100.00,SSE,155,0.0,-999.0,56,-99.99,,,-99.99,218.0,meteohub,2013-09-29 17:17:00,
2013-09-29 13:22:00,88.2,70.5,-100.00,SW,226,0.0,-999.0,56,-99.99,,,-99.99,891.0,meteohub,2013-09-29 17:22:00,
2013-09-29 13:27:00,88.9,70.7,-100.00,SE,144,2.0,-999.0,55,-99.99,,,-99.99,884.0,meteohub,2013-09-29 17:27:00,
2013-09-29 13:32:00,89.1,70.7,-100.00,NW,317,0.0,-999.0,55,-99.99,,,-99.99,963.0,meteohub,2013-09-29 17:32:00,
2013-09-29 13:37:00,89.4,71.1,-100.00,SSE,163,4.0,-999.0,55,-99.99,,,-99.99,169.0,meteohub,2013-09-29 17:37:00,
2013-09-29 13:42:00,88.7,70.5,-100.00,NW,318,2.0,-999.0,55,-99.99,,,-99.99,969.0,meteohub,2013-09-29 17:42:00,
2013-09-29 13:52:00,88.2,70.5,-100.00,SSE,161,3.0,-999.0,56,-99.99,,,-99.99,867.0,meteohub,2013-09-29 17:52:00,
2013-09-29 13:57:00,88.2,70.0,-100.00,NW,310,0.0,-999.0,55,-99.99,,,-99.99,670.0,meteohub,2013-09-29 17:57:00,
2013-09-29 14:02:00,87.6,70.0,-100.00,South,173,0.0,-999.0,56,-99.99,,,-99.99,225.0,meteohub,2013-09-29 18:02:00,
2013-09-29 14:07:00,88.2,70.5,-100.00,WNW,303,2.0,-999.0,56,-99.99,,,-99.99,925.0,meteohub,2013-09-29 18:07:00,
2013-09-29 14:12:00,88.9,71.1,-100.00,SSW,198,1.0,-999.0,56,-99.99,,,-99.99,942.0,meteohub,2013-09-29 18:12:00,
2013-09-29 14:17:00,88.0,70.3,-100.00,SSW,206,0.0,-999.0,56,-99.99,,,-99.99,631.0,meteohub,2013-09-29 18:17:00,
2013-09-29 14:22:00,88.0,70.3,-100.00,West,281,1.0,-999.0,56,-99.99,,,-99.99,631.0,meteohub,2013-09-29 18:22:00,
2013-09-29 14:27:00,88.2,70.5,-100.00,NNW,332,3.0,-999.0,56,-99.99,,,-99.99,949.0,meteohub,2013-09-29 18:27:00,
2013-09-29 14:32:00,88.3,70.7,-100.00,ESE,121,2.0,-999.0,56,-99.99,,,-99.99,482.0,meteohub,2013-09-29 18:32:00,
2013-09-29 14:37:00,87.6,70.0,-100.00,NNW,344,2.0,-999.0,56,-99.99,,,-99.99,202.0,meteohub,2013-09-29 18:37:00,
2013-09-29 14:42:00,87.4,69.8,-100.00,South,179,0.0,-999.0,56,-99.99,,,-99.99,925.0,meteohub,2013-09-29 18:42:00,
2013-09-29 14:47:00,88.2,70.5,-100.00,SE,142,0.0,-999.0,56,-99.99,,,-99.99,928.0,meteohub,2013-09-29 18:47:00,
2013-09-29 14:52:00,88.2,70.5,-100.00,WNW,298,0.0,-999.0,56,-99.99,,,-99.99,833.0,meteohub,2013-09-29 18:52:00,
2013-09-29 14:57:00,88.2,70.5,-100.00,SW,218,2.0,-999.0,56,-99.99,,,-99.99,817.0,meteohub,2013-09-29 18:57:00,
2013-09-29 15:02:00,88.2,70.5,-100.00,NE,34,3.0,-999.0,56,-99.99,,,-99.99,830.0,meteohub,2013-09-29 19:02:00,
2013-09-29 15:07:00,88.3,70.7,-100.00,NW,321,1.0,-999.0,56,-99.99,,,-99.99,833.0,meteohub,2013-09-29 19:07:00,
2013-09-29 15:12:00,89.2,70.9,-100.00,NNE,15,0.0,-999.0,55,-99.99,,,-99.99,856.0,meteohub,2013-09-29 19:12:00,
2013-09-29 15:17:00,89.4,71.1,-100.00,SSW,205,5.0,-999.0,55,-99.99,,,-99.99,840.0,meteohub,2013-09-29 19:17:00,
2013-09-29 15:22:00,88.9,71.1,-100.00,South,172,0.0,-999.0,56,-99.99,,,-99.99,819.0,meteohub,2013-09-29 19:22:00,
2013-09-29 15:27:00,89.1,71.2,-100.00,East,84,4.0,-999.0,56,-99.99,,,-99.99,213.0,meteohub,2013-09-29 19:27:00,
2013-09-29 15:32:00,87.1,69.4,-100.00,South,186,4.0,-999.0,56,-99.99,,,-99.99,338.0,meteohub,2013-09-29 19:32:00,
2013-09-29 15:37:00,86.7,68.5,-100.00,SW,226,0.0,-999.0,55,-99.99,,,-99.99,749.0,meteohub,2013-09-29 19:37:00,
2013-09-29 15:42:00,87.1,69.4,-100.00,South,189,1.0,-999.0,56,-99.99,,,-99.99,766.0,meteohub,2013-09-29 19:42:00,
2013-09-29 15:47:00,87.4,69.8,-100.00,West,277,0.0,-999.0,56,-99.99,,,-99.99,673.0,meteohub,2013-09-29 19:47:00,
2013-09-29 15:52:00,87.6,70.0,-100.00,WNW,302,5.0,-999.0,56,-99.99,,,-99.99,664.0,meteohub,2013-09-29 19:52:00,
2013-09-29 15:57:00,87.8,70.2,-100.00,SSW,203,2.0,-999.0,56,-99.99,,,-99.99,710.0,meteohub,2013-09-29 19:57:00,
2013-09-29 16:02:00,88.3,70.7,-100.00,ENE,63,5.0,-999.0,56,-99.99,,,-99.99,654.0,meteohub,2013-09-29 20:02:00,
2013-09-29 16:07:00,88.5,70.9,-100.00,South,185,1.0,-999.0,56,-99.99,,,-99.99,601.0,meteohub,2013-09-29 20:07:00,
2013-09-29 16:12:00,88.3,70.2,-100.00,NW,311,0.0,-999.0,55,-99.99,,,-99.99,520.0,meteohub,2013-09-29 20:12:00,
2013-09-29 16:17:00,88.2,70.5,-100.00,SSE,163,0.0,-999.0,56,-99.99,,,-99.99,584.0,meteohub,2013-09-29 20:17:00,
2013-09-29 16:22:00,87.6,70.0,-100.00,SSW,197,0.0,-999.0,56,-99.99,,,-99.99,557.0,meteohub,2013-09-29 20:22:00,
2013-09-29 16:27:00,87.6,70.0,-100.00,NW,321,2.0,-999.0,56,-99.99,,,-99.99,533.0,meteohub,2013-09-29 20:27:00,
2013-09-29 16:32:00,87.8,70.2,-100.00,NNW,329,5.0,-999.0,56,-99.99,,,-99.99,527.0,meteohub,2013-09-29 20:32:00,
2013-09-29 16:37:00,87.4,69.8,-100.00,SW,219,5.0,-999.0,56,-99.99,,,-99.99,503.0,meteohub,2013-09-29 20:37:00,
2013-09-29 16:42:00,87.4,69.8,-100.00,NNW,338,0.0,-999.0,56,-99.99,,,-99.99,476.0,meteohub,2013-09-29 20:42:00,
2013-09-29 16:47:00,87.6,70.0,-100.00,SSE,148,1.0,-999.0,56,-99.99,,,-99.99,459.0,meteohub,2013-09-29 20:47:00,
2013-09-29 16:52:00,87.3,69.6,-100.00,SSE,163,0.0,-999.0,56,-99.99,,,-99.99,438.0,meteohub,2013-09-29 20:52:00,
2013-09-29 16:57:00,87.3,69.6,-100.00,SE,141,1.0,-999.0,56,-99.99,,,-99.99,420.0,meteohub,2013-09-29 20:57:00,
2013-09-29 17:02:00,87.1,69.4,-100.00,NW,306,0.0,-999.0,56,-99.99,,,-99.99,399.0,meteohub,2013-09-29 21:02:00,
2013-09-29 17:07:00,87.1,69.4,-100.00,North,5,0.0,-999.0,56,-99.99,,,-99.99,383.0,meteohub,2013-09-29 21:07:00,
2013-09-29 17:12:00,87.1,69.4,-100.00,SSE,164,2.0,-999.0,56,-99.99,,,-99.99,364.0,meteohub,2013-09-29 21:12:00,
2013-09-29 17:17:00,86.7,69.1,-100.00,NNW,342,1.0,-999.0,56,-99.99,,,-99.99,350.0,meteohub,2013-09-29 21:17:00,
2013-09-29 17:22:00,87.1,69.4,-100.00,NNW,333,0.0,-999.0,56,-99.99,,,-99.99,334.0,meteohub,2013-09-29 21:22:00,
2013-09-29 17:27:00,87.1,69.4,-100.00,South,169,0.0,-999.0,56,-99.99,,,-99.99,309.0,meteohub,2013-09-29 21:27:00,
2013-09-29 17:32:00,86.9,69.3,-100.00,West,273,2.0,-999.0,56,-99.99,,,-99.99,294.0,meteohub,2013-09-29 21:32:00,
2013-09-29 17:37:00,86.2,68.7,-100.00,NW,315,3.0,-999.0,56,-99.99,,,-99.99,239.0,meteohub,2013-09-29 21:37:00,
2013-09-29 17:42:00,85.6,67.1,-100.00,WNW,298,5.0,-999.0,54,-99.99,,,-99.99,202.0,meteohub,2013-09-29 21:42:00,
2013-09-29 17:47:00,84.9,66.4,-100.00,SSE,159,0.0,-999.0,54,-99.99,,,-99.99,220.0,meteohub,2013-09-29 21:47:00,
2013-09-29 17:52:00,84.9,65.3,-100.00,North,0,0.0,-999.0,52,-99.99,,,-99.99,206.0,meteohub,2013-09-29 21:52:00,
2013-09-29 17:57:00,85.1,64.9,-100.00,West,260,0.0,-999.0,51,-99.99,,,-99.99,160.0,meteohub,2013-09-29 21:57:00,
2013-09-29 18:02:00,84.7,64.6,-100.00,West,274,1.0,-999.0,51,-99.99,,,-99.99,146.0,meteohub,2013-09-29 22:02:00,
2013-09-29 18:07:00,84.7,64.6,-100.00,NW,315,3.0,-999.0,51,-99.99,,,-99.99,116.0,meteohub,2013-09-29 22:07:00,
2013-09-29 18:12:00,84.4,63.7,-100.00,NW,312,5.0,-999.0,50,-99.99,,,-99.99,40.0,meteohub,2013-09-29 22:12:00,
2013-09-29 18:17:00,83.5,61.7,-100.00,SSE,152,0.0,-999.0,48,-99.99,,,-99.99,26.0,meteohub,2013-09-29 22:17:00,
2013-09-29 18:22:00,82.8,59.9,-100.00,SSE,161,0.0,-999.0,46,-99.99,,,-99.99,26.0,meteohub,2013-09-29 22:22:00,
2013-09-29 18:27:00,82.4,59.5,-100.00,WNW,302,0.0,-999.0,46,-99.99,,,-99.99,28.0,meteohub,2013-09-29 22:27:00,
2013-09-29 18:32:00,82.2,58.8,-100.00,NW,313,3.0,-999.0,45,-99.99,,,-99.99,32.0,meteohub,2013-09-29 22:32:00,
2013-09-29 18:37:00,81.9,56.5,-100.00,NE,37,3.0,-999.0,42,-99.99,,,-99.99,30.0,meteohub,2013-09-29 22:37:00,
2013-09-29 18:42:00,81.7,55.0,-100.00,NNW,337,0.0,-999.0,40,-99.99,,,-99.99,33.0,meteohub,2013-09-29 22:42:00,
2013-09-29 18:47:00,81.9,55.9,-100.00,South,169,0.0,-999.0,41,-99.99,,,-99.99,35.0,meteohub,2013-09-29 22:47:00,
2013-09-29 18:52:00,81.7,56.3,-100.00,SW,223,0.0,-999.0,42,-99.99,,,-99.99,25.0,meteohub,2013-09-29 22:52:00,
2013-09-29 18:57:00,81.7,56.3,-100.00,South,181,1.0,-999.0,42,-99.99,,,-99.99,19.0,meteohub,2013-09-29 22:57:00,
2013-09-29 19:02:00,81.5,56.1,-100.00,SSE,148,2.0,-999.0,42,-99.99,,,-99.99,14.0,meteohub,2013-09-29 23:02:00,
2013-09-29 19:07:00,81.7,56.3,-100.00,East,100,0.0,-999.0,42,-99.99,,,-99.99,11.0,meteohub,2013-09-29 23:07:00,
2013-09-29 19:12:00,81.3,55.4,-100.00,ESE,123,0.0,-999.0,41,-99.99,,,-99.99,0.0,meteohub,2013-09-29 23:12:00,
2013-09-29 19:17:00,81.1,57.7,-100.00,SE,127,0.0,-999.0,45,-99.99,,,-99.99,0.0,meteohub,2013-09-29 23:17:00,
2013-09-29 19:22:00,81.1,56.5,-100.00,SSE,158,0.0,-999.0,43,-99.99,,,-99.99,0.0,meteohub,2013-09-29 23:22:00,
2013-09-29 19:27:00,81.1,56.5,-100.00,WSW,248,0.0,-999.0,43,-99.99,,,-99.99,0.0,meteohub,2013-09-29 23:27:00,
2013-09-29 19:32:00,81.1,57.7,-100.00,SW,232,0.0,-999.0,45,-99.99,,,-99.99,0.0,meteohub,2013-09-29 23:32:00,
2013-09-29 19:37:00,81.0,57.0,-100.00,SW,232,0.0,-999.0,44,-99.99,,,-99.99,0.0,meteohub,2013-09-29 23:37:00,
2013-09-29 19:42:00,81.0,56.3,-100.00,NNE,19,0.0,-999.0,43,-99.99,,,-99.99,0.0,meteohub,2013-09-29 23:42:00,
2013-09-29 19:47:00,80.8,55.6,-100.00,SE,144,0.0,-999.0,42,-99.99,,,-99.99,0.0,meteohub,2013-09-29 23:47:00,
2013-09-29 19:52:00,80.8,56.1,-100.00,SSE,157,0.0,-999.0,43,-99.99,,,-99.99,0.0,meteohub,2013-09-29 23:52:00,
2013-09-29 19:57:00,80.6,56.1,-100.00,SW,223,0.0,-999.0,43,-99.99,,,-99.99,0.0,meteohub,2013-09-29 23:57:00,
2013-09-29 20:02:00,80.6,56.7,-100.00,SSW,211,0.0,-999.0,44,-99.99,,,-99.99,0.0,meteohub,2013-09-30 00:02:00,
2013-09-29 20:07:00,80.6,56.7,-100.00,South,180,0.0,-999.0,44,-99.99,,,-99.99,0.0,meteohub,2013-09-30 00:07:00,
2013-09-29 20:12:00,80.4,57.2,-100.00,SE,145,2.0,-999.0,45,-99.99,,,-99.99,0.0,meteohub,2013-09-30 00:12:00,
2013-09-29 20:17:00,80.4,56.5,-100.00,South,188,0.0,-999.0,44,-99.99,,,-99.99,0.0,meteohub,2013-09-30 00:17:00,
2013-09-29 20:22:00,80.2,55.0,-100.00,South,171,0.0,-999.0,42,-99.99,,,-99.99,0.0,meteohub,2013-09-30 00:22:00,
2013-09-29 20:27:00,80.2,53.8,-100.00,SSE,163,0.0,-999.0,40,-99.99,,,-99.99,0.0,meteohub,2013-09-30 00:27:00,
2013-09-29 20:32:00,80.2,54.3,-100.00,SSE,163,0.0,-999.0,41,-99.99,,,-99.99,0.0,meteohub,2013-09-30 00:32:00,
2013-09-29 20:37:00,80.2,53.8,-100.00,South,178,0.0,-999.0,40,-99.99,,,-99.99,0.0,meteohub,2013-09-30 00:37:00,
2013-09-29 20:42:00,80.2,54.3,-100.00,SE,138,0.0,-999.0,41,-99.99,,,-99.99,0.0,meteohub,2013-09-30 00:42:00,
2013-09-29 20:47:00,80.4,54.5,-100.00,SSW,199,0.0,-999.0,41,-99.99,,,-99.99,0.0,meteohub,2013-09-30 00:47:00,
2013-09-29 20:52:00,80.4,55.2,-100.00,NW,325,0.0,-999.0,42,-99.99,,,-99.99,0.0,meteohub,2013-09-30 00:52:00,
2013-09-29 20:57:00,80.2,55.0,-100.00,ESE,119,0.0,-999.0,42,-99.99,,,-99.99,0.0,meteohub,2013-09-30 00:57:00,
2013-09-29 21:02:00,80.2,54.3,-100.00,SE,127,0.0,-999.0,41,-99.99,,,-99.99,0.0,meteohub,2013-09-30 01:02:00,
2013-09-29 21:07:00,80.2,53.8,-100.00,SSW,192,0.0,-999.0,40,-99.99,,,-99.99,0.0,meteohub,2013-09-30 01:07:00,
2013-09-29 21:12:00,80.1,54.3,-100.00,South,174,0.0,-999.0,41,-99.99,,,-99.99,0.0,meteohub,2013-09-30 01:12:00,
2013-09-29 21:17:00,80.1,53.6,-100.00,South,172,0.0,-999.0,40,-99.99,,,-99.99,0.0,meteohub,2013-09-30 01:17:00,
2013-09-29 21:22:00,80.1,54.3,-100.00,South,175,0.0,-999.0,41,-99.99,,,-99.99,0.0,meteohub,2013-09-30 01:22:00,
2013-09-29 21:27:00,80.1,54.3,-100.00,SE,132,0.0,-999.0,41,-99.99,,,-99.99,0.0,meteohub,2013-09-30 01:27:00,
2013-09-29 21:32:00,80.1,54.9,-100.00,SE,132,0.0,-999.0,42,-99.99,,,-99.99,0.0,meteohub,2013-09-30 01:32:00,
2013-09-29 21:37:00,79.9,54.7,-100.00,SE,134,0.0,-999.0,42,-99.99,,,-99.99,0.0,meteohub,2013-09-30 01:37:00,
2013-09-29 21:42:00,79.9,54.1,-100.00,East,101,0.0,-999.0,41,-99.99,,,-99.99,0.0,meteohub,2013-09-30 01:42:00,
2013-09-29 21:52:00,80.1,53.6,-100.00,SSW,199,0.0,-999.0,40,-99.99,,,-99.99,0.0,meteohub,2013-09-30 01:52:00,
2013-09-29 21:57:00,80.1,52.9,-100.00,SE,130,0.0,-999.0,39,-99.99,,,-99.99,0.0,meteohub,2013-09-30 01:57:00,
2013-09-29 22:02:00,79.9,52.7,-100.00,South,190,0.0,-999.0,39,-99.99,,,-99.99,0.0,meteohub,2013-09-30 02:02:00,
2013-09-29 22:07:00,79.7,53.2,-100.00,SE,126,2.0,-999.0,40,-99.99,,,-99.99,0.0,meteohub,2013-09-30 02:07:00,
2013-09-29 22:12:00,79.7,53.2,-100.00,SSE,153,0.0,-999.0,40,-99.99,,,-99.99,0.0,meteohub,2013-09-30 02:12:00,
2013-09-29 22:17:00,79.7,52.5,-100.00,SSE,155,0.0,-999.0,39,-99.99,,,-99.99,0.0,meteohub,2013-09-30 02:17:00,
2013-09-29 22:22:00,79.9,52.0,-100.00,SSE,152,0.0,-999.0,38,-99.99,,,-99.99,0.0,meteohub,2013-09-30 02:22:00,
2013-09-29 22:27:00,79.9,52.7,-100.00,SSE,167,0.0,-999.0,39,-99.99,,,-99.99,0.0,meteohub,2013-09-30 02:27:00,
2013-09-29 22:32:00,79.7,52.5,-100.00,SSE,161,0.0,-999.0,39,-99.99,,,-99.99,0.0,meteohub,2013-09-30 02:32:00,
2013-09-29 22:37:00,79.5,53.1,-100.00,SSE,162,0.0,-999.0,40,-99.99,,,-99.99,0.0,meteohub,2013-09-30 02:37:00,
2013-09-29 22:42:00,79.5,53.1,-100.00,SSE,161,0.0,-999.0,40,-99.99,,,-99.99,0.0,meteohub,2013-09-30 02:42:00,
2013-09-29 22:52:00,79.7,53.2,-100.00,SSE,161,0.0,-999.0,40,-99.99,,,-99.99,0.0,meteohub,2013-09-30 02:52:00,
2013-09-29 22:57:00,79.7,52.5,-100.00,SSE,161,0.0,-999.0,39,-99.99,,,-99.99,0.0,meteohub,2013-09-30 02:57:00,
2013-09-29 23:02:00,79.5,52.3,-100.00,SSE,155,0.0,-999.0,39,-99.99,,,-99.99,0.0,meteohub,2013-09-30 03:02:00,
2013-09-29 23:07:00,79.5,53.1,-100.00,SSE,155,0.0,-999.0,40,-99.99,,,-99.99,0.0,meteohub,2013-09-30 03:07:00,
2013-09-29 23:12:00,79.5,53.8,-100.00,SSE,152,0.0,-999.0,41,-99.99,,,-99.99,0.0,meteohub,2013-09-30 03:12:00,
2013-09-29 23:17:00,79.5,53.8,-100.00,SSE,153,0.0,-999.0,41,-99.99,,,-99.99,0.0,meteohub,2013-09-30 03:17:00,
2013-09-29 23:22:00,79.5,53.8,-100.00,SSE,153,0.0,-999.0,41,-99.99,,,-99.99,0.0,meteohub,2013-09-30 03:22:00,
2013-09-29 23:27:00,79.5,52.3,-100.00,SSE,153,0.0,-999.0,39,-99.99,,,-99.99,0.0,meteohub,2013-09-30 03:27:00,
2013-09-29 23:32:00,79.9,51.3,-100.00,SSE,153,0.0,-999.0,37,-99.99,,,-99.99,0.0,meteohub,2013-09-30 03:32:00,
2013-09-29 23:37:00,79.9,51.3,-100.00,SSE,152,0.0,-999.0,37,-99.99,,,-99.99,0.0,meteohub,2013-09-30 03:37:00,
2013-09-29 23:42:00,79.9,51.3,-100.00,ESE,122,1.0,-999.0,37,-99.99,,,-99.99,0.0,meteohub,2013-09-30 03:42:00,
2013-09-29 23:47:00,79.5,52.3,-100.00,South,176,0.0,-999.0,39,-99.99,,,-99.99,0.0,meteohub,2013-09-30 03:47:00,
2013-09-29 23:52:00,79.5,52.3,-100.00,South,181,0.0,-999.0,39,-99.99,,,-99.99,0.0,meteohub,2013-09-30 03:52:00,
2013-09-29 23:57:00,79.5,50.9,-100.00,SE,136,0.0,-999.0,37,-99.99,,,-99.99,0.0,meteohub,2013-09-30 03:57:00,